sensor_id;sensor_type;location;lat;lon;timestamp;temperature;humidity
1461;DHT22;724;49.910;12.530;2022-09-09T00:02:14;10.00;1.00
1461;DHT22;724;49.910;12.530;2022-09-09T00:04:48;10.00;1.00
1461;DHT22;724;49.910;12.530;2022-09-09T00:07:21;10.00;1.00
1461;DHT22;724;49.910;12.530;2022-09-09T00:09:58;10.00;1.00
1461;DHT22;724;49.910;12.530;2022-09-09T00:12:32;9.90;1.00
1461;DHT22;724;49.910;12.530;2022-09-09T00:15:02;9.80;1.00
1461;DHT22;724;49.910;12.530;2022-09-09T00:17:35;9.90;99.90
1461;DHT22;724;49.910;12.530;2022-09-09T00:20:12;10.00;99.90
1461;DHT22;724;49.910;12.530;2022-09-09T00:22:41;10.00;99.90
1461;DHT22;724;49.910;12.530;2022-09-09T00:25:15;10.00;99.90
1461;DHT22;724;49.910;12.530;2022-09-09T00:27:48;10.00;1.00
1461;DHT22;724;49.910;12.530;2022-09-09T00:30:18;10.00;1.00
1461;DHT22;724;49.910;12.530;2022-09-09T00:32:48;9.90;1.00
1461;DHT22;724;49.910;12.530;2022-09-09T00:35:18;9.80;1.00
1461;DHT22;724;49.910;12.530;2022-09-09T00:37:49;9.80;1.00
1461;DHT22;724;49.910;12.530;2022-09-09T00:40:26;9.80;1.00
1461;DHT22;724;49.910;12.530;2022-09-09T00:43:08;9.80;1.00
1461;DHT22;724;49.910;12.530;2022-09-09T00:45:56;9.80;1.00
1461;DHT22;724;49.910;12.530;2022-09-09T00:48:32;9.80;1.00
1461;DHT22;724;49.910;12.530;2022-09-09T00:51:08;9.70;1.00
1461;DHT22;724;49.910;12.530;2022-09-09T00:53:39;9.70;1.00
1461;DHT22;724;49.910;12.530;2022-09-09T00:56:13;9.60;1.00
1461;DHT22;724;49.910;12.530;2022-09-09T00:58:42;9.60;1.00
1461;DHT22;724;49.910;12.530;2022-09-09T01:01:11;9.50;1.00
1461;DHT22;724;49.910;12.530;2022-09-09T01:03:42;9.50;1.00
1461;DHT22;724;49.910;12.530;2022-09-09T01:06:16;9.60;1.00
1461;DHT22;724;49.910;12.530;2022-09-09T01:09:07;9.50;1.00
1461;DHT22;724;49.910;12.530;2022-09-09T01:11:47;9.40;1.00
1461;DHT22;724;49.910;12.530;2022-09-09T01:14:24;9.40;1.00
1461;DHT22;724;49.910;12.530;2022-09-09T01:16:56;9.30;1.00
1461;DHT22;724;49.910;12.530;2022-09-09T01:19:36;9.30;1.00
1461;DHT22;724;49.910;12.530;2022-09-09T01:22:10;9.30;1.00
1461;DHT22;724;49.910;12.530;2022-09-09T01:24:42;9.30;1.00
1461;DHT22;724;49.910;12.530;2022-09-09T01:27:13;9.20;93.80
1461;DHT22;724;49.910;12.530;2022-09-09T01:29:41;9.30;99.90
1461;DHT22;724;49.910;12.530;2022-09-09T01:32:42;9.30;99.90
1461;DHT22;724;49.910;12.530;2022-09-09T01:35:13;9.20;99.90
1461;DHT22;724;49.910;12.530;2022-09-09T01:37:41;9.20;99.90
1461;DHT22;724;49.910;12.530;2022-09-09T01:40:08;9.20;99.90
1461;DHT22;724;49.910;12.530;2022-09-09T01:42:37;9.10;99.90
1461;DHT22;724;49.910;12.530;2022-09-09T01:45:04;9.10;99.90
1461;DHT22;724;49.910;12.530;2022-09-09T01:47:32;9.10;99.90
1461;DHT22;724;49.910;12.530;2022-09-09T01:49:59;9.10;99.90
1461;DHT22;724;49.910;12.530;2022-09-09T01:52:27;9.10;99.90
1461;DHT22;724;49.910;12.530;2022-09-09T01:54:54;9.10;99.90
1461;DHT22;724;49.910;12.530;2022-09-09T01:57:25;9.00;99.90
1461;DHT22;724;49.910;12.530;2022-09-09T02:00:04;9.00;99.90
1461;DHT22;724;49.910;12.530;2022-09-09T02:02:36;8.90;99.90
1461;DHT22;724;49.910;12.530;2022-09-09T02:05:15;8.90;1.00
1461;DHT22;724;49.910;12.530;2022-09-09T02:07:47;8.90;1.00
1461;DHT22;724;49.910;12.530;2022-09-09T02:10:17;9.00;1.00
1461;DHT22;724;49.910;12.530;2022-09-09T02:12:48;9.00;1.00
1461;DHT22;724;49.910;12.530;2022-09-09T02:15:22;8.90;1.00
1461;DHT22;724;49.910;12.530;2022-09-09T02:17:51;9.00;1.00
1461;DHT22;724;49.910;12.530;2022-09-09T02:20:19;9.00;1.00
1461;DHT22;724;49.910;12.530;2022-09-09T02:22:50;8.90;1.00
1461;DHT22;724;49.910;12.530;2022-09-09T02:25:19;9.00;1.00
1461;DHT22;724;49.910;12.530;2022-09-09T02:27:50;8.90;1.00
1461;DHT22;724;49.910;12.530;2022-09-09T02:30:19;9.00;1.00
1461;DHT22;724;49.910;12.530;2022-09-09T02:32:48;8.90;1.00
1461;DHT22;724;49.910;12.530;2022-09-09T02:35:19;9.00;1.00
1461;DHT22;724;49.910;12.530;2022-09-09T02:37:48;9.00;1.00
1461;DHT22;724;49.910;12.530;2022-09-09T02:40:16;9.00;1.00
1461;DHT22;724;49.910;12.530;2022-09-09T02:42:45;8.90;1.00
1461;DHT22;724;49.910;12.530;2022-09-09T02:45:14;8.90;1.00
1461;DHT22;724;49.910;12.530;2022-09-09T02:47:50;9.00;1.00
1461;DHT22;724;49.910;12.530;2022-09-09T02:50:23;8.90;1.00
1461;DHT22;724;49.910;12.530;2022-09-09T02:53:02;9.00;1.00
1461;DHT22;724;49.910;12.530;2022-09-09T02:55:38;9.00;1.00
1461;DHT22;724;49.910;12.530;2022-09-09T02:58:07;9.00;1.00
1461;DHT22;724;49.910;12.530;2022-09-09T03:00:38;9.00;1.00
1461;DHT22;724;49.910;12.530;2022-09-09T03:03:07;9.00;1.00
1461;DHT22;724;49.910;12.530;2022-09-09T03:05:35;9.00;1.00
1461;DHT22;724;49.910;12.530;2022-09-09T03:08:02;9.00;1.00
1461;DHT22;724;49.910;12.530;2022-09-09T03:10:29;9.00;1.00
1461;DHT22;724;49.910;12.530;2022-09-09T03:12:56;9.00;1.00
1461;DHT22;724;49.910;12.530;2022-09-09T03:15:23;9.00;1.00
1461;DHT22;724;49.910;12.530;2022-09-09T03:17:50;9.00;1.00
1461;DHT22;724;49.910;12.530;2022-09-09T03:20:19;8.90;1.00
1461;DHT22;724;49.910;12.530;2022-09-09T03:22:46;9.00;1.00
1461;DHT22;724;49.910;12.530;2022-09-09T03:25:13;9.00;1.00
1461;DHT22;724;49.910;12.530;2022-09-09T03:27:39;8.90;1.00
1461;DHT22;724;49.910;12.530;2022-09-09T03:30:07;8.70;99.90
1461;DHT22;724;49.910;12.530;2022-09-09T03:32:34;8.40;1.00
1461;DHT22;724;49.910;12.530;2022-09-09T03:35:01;8.60;99.90
1461;DHT22;724;49.910;12.530;2022-09-09T03:37:29;8.60;50.30
1461;DHT22;724;49.910;12.530;2022-09-09T03:39:57;8.60;1.00
1461;DHT22;724;49.910;12.530;2022-09-09T03:42:25;8.50;1.00
1461;DHT22;724;49.910;12.530;2022-09-09T03:44:52;8.30;1.00
1461;DHT22;724;49.910;12.530;2022-09-09T03:47:20;8.10;1.00
1461;DHT22;724;49.910;12.530;2022-09-09T03:49:47;8.30;99.90
1461;DHT22;724;49.910;12.530;2022-09-09T03:52:15;8.40;99.90
1461;DHT22;724;49.910;12.530;2022-09-09T03:54:43;8.40;99.90
1461;DHT22;724;49.910;12.530;2022-09-09T03:57:10;8.40;99.90
1461;DHT22;724;49.910;12.530;2022-09-09T03:59:37;8.40;99.90
1461;DHT22;724;49.910;12.530;2022-09-09T04:02:04;8.60;1.00
1461;DHT22;724;49.910;12.530;2022-09-09T04:04:31;8.60;1.00
1461;DHT22;724;49.910;12.530;2022-09-09T04:06:57;8.70;1.00
1461;DHT22;724;49.910;12.530;2022-09-09T04:09:24;8.70;1.00
1461;DHT22;724;49.910;12.530;2022-09-09T04:11:52;8.80;1.00
1461;DHT22;724;49.910;12.530;2022-09-09T04:14:20;8.80;1.00
1461;DHT22;724;49.910;12.530;2022-09-09T04:16:47;8.70;1.00
1461;DHT22;724;49.910;12.530;2022-09-09T04:19:14;8.80;1.00
1461;DHT22;724;49.910;12.530;2022-09-09T04:21:41;8.80;2.10
1461;DHT22;724;49.910;12.530;2022-09-09T04:24:08;8.90;27.30
1461;DHT22;724;49.910;12.530;2022-09-09T04:26:36;8.90;56.40
1461;DHT22;724;49.910;12.530;2022-09-09T04:29:04;9.00;95.60
1461;DHT22;724;49.910;12.530;2022-09-09T04:31:32;9.00;99.90
1461;DHT22;724;49.910;12.530;2022-09-09T04:34:00;9.10;99.90
1461;DHT22;724;49.910;12.530;2022-09-09T04:36:30;9.10;99.90
1461;DHT22;724;49.910;12.530;2022-09-09T04:38:58;9.10;99.90
1461;DHT22;724;49.910;12.530;2022-09-09T04:41:25;9.00;99.90
1461;DHT22;724;49.910;12.530;2022-09-09T04:43:51;9.10;99.90
1461;DHT22;724;49.910;12.530;2022-09-09T04:46:20;9.10;99.90
1461;DHT22;724;49.910;12.530;2022-09-09T04:48:48;9.10;99.90
1461;DHT22;724;49.910;12.530;2022-09-09T04:51:15;9.10;99.90
1461;DHT22;724;49.910;12.530;2022-09-09T04:53:42;9.20;99.90
1461;DHT22;724;49.910;12.530;2022-09-09T04:56:11;9.20;7.60
1461;DHT22;724;49.910;12.530;2022-09-09T04:58:38;9.10;1.00
1461;DHT22;724;49.910;12.530;2022-09-09T05:01:08;9.00;1.00
1461;DHT22;724;49.910;12.530;2022-09-09T05:03:37;8.80;99.90
1461;DHT22;724;49.910;12.530;2022-09-09T05:06:05;8.80;99.90
1461;DHT22;724;49.910;12.530;2022-09-09T05:08:33;9.00;99.90
1461;DHT22;724;49.910;12.530;2022-09-09T05:11:00;9.20;99.90
1461;DHT22;724;49.910;12.530;2022-09-09T05:13:27;9.40;99.90
1461;DHT22;724;49.910;12.530;2022-09-09T05:15:55;9.50;99.90
1461;DHT22;724;49.910;12.530;2022-09-09T05:18:21;9.70;99.90
1461;DHT22;724;49.910;12.530;2022-09-09T05:20:50;9.90;99.90
1461;DHT22;724;49.910;12.530;2022-09-09T05:23:17;10.20;1.00
1461;DHT22;724;49.910;12.530;2022-09-09T05:25:53;10.50;99.90
1461;DHT22;724;49.910;12.530;2022-09-09T05:28:20;10.90;1.00
1461;DHT22;724;49.910;12.530;2022-09-09T05:30:55;12.00;1.00
1461;DHT22;724;49.910;12.530;2022-09-09T05:33:22;12.80;1.00
1461;DHT22;724;49.910;12.530;2022-09-09T05:35:56;13.20;99.90
1461;DHT22;724;49.910;12.530;2022-09-09T05:38:23;13.10;99.90
1461;DHT22;724;49.910;12.530;2022-09-09T05:40:50;12.10;99.90
1461;DHT22;724;49.910;12.530;2022-09-09T05:43:17;11.40;1.00
1461;DHT22;724;49.910;12.530;2022-09-09T05:45:45;11.20;1.00
1461;DHT22;724;49.910;12.530;2022-09-09T05:48:13;11.20;1.00
1461;DHT22;724;49.910;12.530;2022-09-09T05:50:40;11.20;1.00
1461;DHT22;724;49.910;12.530;2022-09-09T05:53:11;10.90;1.00
1461;DHT22;724;49.910;12.530;2022-09-09T05:55:38;12.10;1.00
1461;DHT22;724;49.910;12.530;2022-09-09T05:58:04;14.00;99.90
1461;DHT22;724;49.910;12.530;2022-09-09T06:00:31;15.10;1.00
1461;DHT22;724;49.910;12.530;2022-09-09T06:02:58;14.20;1.00
1461;DHT22;724;49.910;12.530;2022-09-09T06:05:25;13.70;1.00
1461;DHT22;724;49.910;12.530;2022-09-09T06:07:54;13.50;14.20
1461;DHT22;724;49.910;12.530;2022-09-09T06:10:22;14.20;1.00
1461;DHT22;724;49.910;12.530;2022-09-09T06:12:52;15.30;1.00
1461;DHT22;724;49.910;12.530;2022-09-09T06:15:18;16.00;1.00
1461;DHT22;724;49.910;12.530;2022-09-09T06:17:45;15.90;1.00
1461;DHT22;724;49.910;12.530;2022-09-09T06:20:12;15.00;1.00
1461;DHT22;724;49.910;12.530;2022-09-09T06:22:39;15.60;1.00
1461;DHT22;724;49.910;12.530;2022-09-09T06:25:08;17.60;1.00
1461;DHT22;724;49.910;12.530;2022-09-09T06:27:38;19.30;1.00
1461;DHT22;724;49.910;12.530;2022-09-09T06:30:05;17.70;99.90
1461;DHT22;724;49.910;12.530;2022-09-09T06:32:35;16.80;1.00
1461;DHT22;724;49.910;12.530;2022-09-09T06:35:03;16.70;1.00
1461;DHT22;724;49.910;12.530;2022-09-09T06:37:30;17.50;1.00
1461;DHT22;724;49.910;12.530;2022-09-09T06:39:57;18.70;1.00
1461;DHT22;724;49.910;12.530;2022-09-09T06:42:24;17.90;1.00
1461;DHT22;724;49.910;12.530;2022-09-09T06:44:52;19.60;99.90
1461;DHT22;724;49.910;12.530;2022-09-09T06:47:18;20.60;99.90
1461;DHT22;724;49.910;12.530;2022-09-09T06:49:45;20.20;99.90
1461;DHT22;724;49.910;12.530;2022-09-09T06:52:12;19.20;99.90
1461;DHT22;724;49.910;12.530;2022-09-09T06:54:38;19.40;99.90
1461;DHT22;724;49.910;12.530;2022-09-09T06:57:05;21.40;99.90
1461;DHT22;724;49.910;12.530;2022-09-09T06:59:33;21.10;99.90
1461;DHT22;724;49.910;12.530;2022-09-09T07:02:01;22.30;99.90
1461;DHT22;724;49.910;12.530;2022-09-09T07:04:28;21.30;99.90
1461;DHT22;724;49.910;12.530;2022-09-09T07:06:55;19.80;99.90
1461;DHT22;724;49.910;12.530;2022-09-09T07:09:21;20.00;99.90
1461;DHT22;724;49.910;12.530;2022-09-09T07:11:50;19.80;99.90
1461;DHT22;724;49.910;12.530;2022-09-09T07:14:18;19.60;99.90
1461;DHT22;724;49.910;12.530;2022-09-09T07:16:46;19.20;99.90
1461;DHT22;724;49.910;12.530;2022-09-09T07:19:15;18.70;99.90
1461;DHT22;724;49.910;12.530;2022-09-09T07:21:42;18.70;99.90
1461;DHT22;724;49.910;12.530;2022-09-09T07:24:09;18.50;99.90
1461;DHT22;724;49.910;12.530;2022-09-09T07:26:38;18.90;99.90
1461;DHT22;724;49.910;12.530;2022-09-09T07:29:05;18.70;99.90
1461;DHT22;724;49.910;12.530;2022-09-09T07:31:32;18.30;99.90
1461;DHT22;724;49.910;12.530;2022-09-09T07:34:00;17.80;99.90
1461;DHT22;724;49.910;12.530;2022-09-09T07:36:30;17.80;99.90
1461;DHT22;724;49.910;12.530;2022-09-09T07:38:59;17.70;99.90
1461;DHT22;724;49.910;12.530;2022-09-09T07:41:28;17.80;99.90
1461;DHT22;724;49.910;12.530;2022-09-09T07:43:56;17.40;99.90
1461;DHT22;724;49.910;12.530;2022-09-09T07:46:26;17.10;99.90
1461;DHT22;724;49.910;12.530;2022-09-09T07:48:54;16.70;1.00
1461;DHT22;724;49.910;12.530;2022-09-09T07:51:24;16.30;1.00
1461;DHT22;724;49.910;12.530;2022-09-09T07:53:54;15.70;1.00
1461;DHT22;724;49.910;12.530;2022-09-09T07:56:23;15.40;99.90
1461;DHT22;724;49.910;12.530;2022-09-09T07:58:52;15.20;1.00
1461;DHT22;724;49.910;12.530;2022-09-09T08:01:21;15.20;1.00
1461;DHT22;724;49.910;12.530;2022-09-09T08:03:53;15.40;1.00
1461;DHT22;724;49.910;12.530;2022-09-09T08:06:21;15.90;1.00
1461;DHT22;724;49.910;12.530;2022-09-09T08:08:50;15.90;99.90
1461;DHT22;724;49.910;12.530;2022-09-09T08:11:19;15.90;99.90
1461;DHT22;724;49.910;12.530;2022-09-09T08:13:46;16.00;99.90
1461;DHT22;724;49.910;12.530;2022-09-09T08:16:14;16.30;77.00
1461;DHT22;724;49.910;12.530;2022-09-09T08:18:42;17.40;1.00
1461;DHT22;724;49.910;12.530;2022-09-09T08:21:11;18.20;1.00
1461;DHT22;724;49.910;12.530;2022-09-09T08:23:39;18.10;1.00
1461;DHT22;724;49.910;12.530;2022-09-09T08:26:09;17.80;1.00
1461;DHT22;724;49.910;12.530;2022-09-09T08:28:38;18.50;1.00
1461;DHT22;724;49.910;12.530;2022-09-09T08:31:07;19.00;1.00
1461;DHT22;724;49.910;12.530;2022-09-09T08:33:34;18.30;1.00
1461;DHT22;724;49.910;12.530;2022-09-09T08:36:04;17.90;1.00
1461;DHT22;724;49.910;12.530;2022-09-09T08:38:31;17.90;1.00
1461;DHT22;724;49.910;12.530;2022-09-09T08:41:05;17.60;1.00
1461;DHT22;724;49.910;12.530;2022-09-09T08:43:33;17.70;1.00
1461;DHT22;724;49.910;12.530;2022-09-09T08:46:07;17.40;1.00
1461;DHT22;724;49.910;12.530;2022-09-09T08:48:46;17.60;1.00
1461;DHT22;724;49.910;12.530;2022-09-09T08:51:14;18.10;1.00
1461;DHT22;724;49.910;12.530;2022-09-09T08:53:43;18.20;1.00
1461;DHT22;724;49.910;12.530;2022-09-09T08:56:14;17.90;1.00
1461;DHT22;724;49.910;12.530;2022-09-09T08:58:45;17.60;1.00
1461;DHT22;724;49.910;12.530;2022-09-09T09:01:38;16.90;1.00
1461;DHT22;724;49.910;12.530;2022-09-09T09:04:21;16.20;1.00
1461;DHT22;724;49.910;12.530;2022-09-09T09:07:01;16.20;1.00
1461;DHT22;724;49.910;12.530;2022-09-09T09:09:37;15.90;1.00
1461;DHT22;724;49.910;12.530;2022-09-09T09:12:15;15.90;1.00
1461;DHT22;724;49.910;12.530;2022-09-09T09:14:43;15.60;1.00
1461;DHT22;724;49.910;12.530;2022-09-09T09:17:14;15.70;1.00
1461;DHT22;724;49.910;12.530;2022-09-09T09:19:42;15.60;1.00
1461;DHT22;724;49.910;12.530;2022-09-09T09:22:15;15.80;1.00
1461;DHT22;724;49.910;12.530;2022-09-09T09:24:51;15.60;1.00
1461;DHT22;724;49.910;12.530;2022-09-09T09:27:28;15.60;1.00
1461;DHT22;724;49.910;12.530;2022-09-09T09:29:59;15.60;1.00
1461;DHT22;724;49.910;12.530;2022-09-09T09:32:33;15.70;1.00
1461;DHT22;724;49.910;12.530;2022-09-09T09:35:02;16.00;1.00
1461;DHT22;724;49.910;12.530;2022-09-09T09:37:32;15.90;1.00
1461;DHT22;724;49.910;12.530;2022-09-09T09:40:19;16.30;1.00
1461;DHT22;724;49.910;12.530;2022-09-09T09:42:52;17.50;1.00
1461;DHT22;724;49.910;12.530;2022-09-09T09:45:28;18.00;1.00
1461;DHT22;724;49.910;12.530;2022-09-09T09:48:03;17.00;1.00
1461;DHT22;724;49.910;12.530;2022-09-09T09:50:31;16.80;1.00
1461;DHT22;724;49.910;12.530;2022-09-09T09:53:00;17.20;1.00
1461;DHT22;724;49.910;12.530;2022-09-09T09:55:30;17.70;1.00
1461;DHT22;724;49.910;12.530;2022-09-09T09:58:02;19.50;1.00
1461;DHT22;724;49.910;12.530;2022-09-09T10:00:29;20.70;99.90
1461;DHT22;724;49.910;12.530;2022-09-09T10:02:56;20.90;99.90
1461;DHT22;724;49.910;12.530;2022-09-09T10:05:25;20.70;99.90
1461;DHT22;724;49.910;12.530;2022-09-09T10:08:03;21.90;99.90
1461;DHT22;724;49.910;12.530;2022-09-09T10:10:45;23.60;99.90
1461;DHT22;724;49.910;12.530;2022-09-09T10:13:19;22.60;99.90
1461;DHT22;724;49.910;12.530;2022-09-09T10:15:58;23.50;99.90
1461;DHT22;724;49.910;12.530;2022-09-09T10:18:45;24.30;99.90
1461;DHT22;724;49.910;12.530;2022-09-09T10:21:24;23.40;67.10
1461;DHT22;724;49.910;12.530;2022-09-09T10:24:07;21.20;32.40
1461;DHT22;724;49.910;12.530;2022-09-09T10:26:46;22.50;64.20
1461;DHT22;724;49.910;12.530;2022-09-09T10:32:15;21.20;32.60
1461;DHT22;724;49.910;12.530;2022-09-09T10:34:57;20.80;19.20
1461;DHT22;724;49.910;12.530;2022-09-09T10:37:37;20.60;19.40
1461;DHT22;724;49.910;12.530;2022-09-09T10:40:20;21.40;30.00
1461;DHT22;724;49.910;12.530;2022-09-09T10:42:52;20.80;1.00
1461;DHT22;724;49.910;12.530;2022-09-09T10:45:23;21.20;8.00
1461;DHT22;724;49.910;12.530;2022-09-09T10:48:10;20.90;1.50
1461;DHT22;724;49.910;12.530;2022-09-09T10:50:46;21.10;11.90
1461;DHT22;724;49.910;12.530;2022-09-09T10:53:25;21.20;1.00
1461;DHT22;724;49.910;12.530;2022-09-09T10:55:59;22.30;1.00
1461;DHT22;724;49.910;12.530;2022-09-09T10:58:30;22.90;1.00
1461;DHT22;724;49.910;12.530;2022-09-09T11:01:03;23.40;1.00
1461;DHT22;724;49.910;12.530;2022-09-09T11:03:35;22.70;1.00
1461;DHT22;724;49.910;12.530;2022-09-09T11:06:07;22.10;1.00
1461;DHT22;724;49.910;12.530;2022-09-09T11:08:39;21.40;1.00
1461;DHT22;724;49.910;12.530;2022-09-09T11:11:11;21.30;1.00
1461;DHT22;724;49.910;12.530;2022-09-09T11:13:45;21.50;1.00
1461;DHT22;724;49.910;12.530;2022-09-09T11:16:20;22.50;1.00
1461;DHT22;724;49.910;12.530;2022-09-09T11:18:48;22.90;1.00
1461;DHT22;724;49.910;12.530;2022-09-09T11:21:20;23.60;1.00
1461;DHT22;724;49.910;12.530;2022-09-09T11:23:52;21.50;1.00
1461;DHT22;724;49.910;12.530;2022-09-09T11:26:29;19.40;1.00
1461;DHT22;724;49.910;12.530;2022-09-09T11:31:58;21.10;1.00
1461;DHT22;724;49.910;12.530;2022-09-09T11:34:39;20.00;1.00
1461;DHT22;724;49.910;12.530;2022-09-09T11:37:22;18.50;1.00
1461;DHT22;724;49.910;12.530;2022-09-09T11:40:18;19.20;1.00
1461;DHT22;724;49.910;12.530;2022-09-09T11:42:45;20.90;1.00
1461;DHT22;724;49.910;12.530;2022-09-09T11:45:23;20.50;1.00
1461;DHT22;724;49.910;12.530;2022-09-09T11:47:52;19.60;1.00
1461;DHT22;724;49.910;12.530;2022-09-09T11:50:37;19.40;1.00
1461;DHT22;724;49.910;12.530;2022-09-09T11:53:23;20.00;1.00
1461;DHT22;724;49.910;12.530;2022-09-09T11:56:10;19.80;1.00
1461;DHT22;724;49.910;12.530;2022-09-09T11:58:41;19.90;1.00
1461;DHT22;724;49.910;12.530;2022-09-09T12:01:24;19.80;1.00
1461;DHT22;724;49.910;12.530;2022-09-09T12:04:01;20.10;1.00
1461;DHT22;724;49.910;12.530;2022-09-09T12:06:33;19.90;1.00
1461;DHT22;724;49.910;12.530;2022-09-09T12:09:12;20.40;1.00
1461;DHT22;724;49.910;12.530;2022-09-09T12:11:43;20.10;1.00
1461;DHT22;724;49.910;12.530;2022-09-09T12:14:20;19.60;1.00
1461;DHT22;724;49.910;12.530;2022-09-09T12:16:48;19.40;1.00
1461;DHT22;724;49.910;12.530;2022-09-09T12:19:19;20.00;1.00
1461;DHT22;724;49.910;12.530;2022-09-09T12:21:51;19.90;1.00
1461;DHT22;724;49.910;12.530;2022-09-09T12:24:24;20.00;1.00
1461;DHT22;724;49.910;12.530;2022-09-09T12:26:59;19.80;1.00
1461;DHT22;724;49.910;12.530;2022-09-09T12:29:36;19.10;1.00
1461;DHT22;724;49.910;12.530;2022-09-09T12:32:08;18.60;1.00
1461;DHT22;724;49.910;12.530;2022-09-09T12:34:41;18.60;1.00
1461;DHT22;724;49.910;12.530;2022-09-09T12:37:28;18.80;1.00
1461;DHT22;724;49.910;12.530;2022-09-09T12:39:56;19.50;1.00
1461;DHT22;724;49.910;12.530;2022-09-09T12:42:26;19.20;1.00
1461;DHT22;724;49.910;12.530;2022-09-09T12:44:55;18.80;1.00
1461;DHT22;724;49.910;12.530;2022-09-09T12:47:30;19.30;1.00
1461;DHT22;724;49.910;12.530;2022-09-09T12:50:00;18.80;1.00
1461;DHT22;724;49.910;12.530;2022-09-09T12:52:30;19.00;1.00
1461;DHT22;724;49.910;12.530;2022-09-09T12:55:00;19.60;1.00
1461;DHT22;724;49.910;12.530;2022-09-09T12:57:34;19.20;1.00
1461;DHT22;724;49.910;12.530;2022-09-09T13:00:14;19.30;1.00
1461;DHT22;724;49.910;12.530;2022-09-09T13:02:50;19.80;1.00
1461;DHT22;724;49.910;12.530;2022-09-09T13:05:19;19.80;1.00
1461;DHT22;724;49.910;12.530;2022-09-09T13:07:46;19.90;1.00
1461;DHT22;724;49.910;12.530;2022-09-09T13:10:15;19.70;1.00
1461;DHT22;724;49.910;12.530;2022-09-09T13:12:47;19.40;1.00
1461;DHT22;724;49.910;12.530;2022-09-09T13:15:21;19.50;1.00
1461;DHT22;724;49.910;12.530;2022-09-09T13:17:56;19.50;1.00
1461;DHT22;724;49.910;12.530;2022-09-09T13:20:24;19.70;1.00
1461;DHT22;724;49.910;12.530;2022-09-09T13:22:52;19.50;1.00
1461;DHT22;724;49.910;12.530;2022-09-09T13:25:23;19.60;1.00
1461;DHT22;724;49.910;12.530;2022-09-09T13:27:55;20.10;1.00
1461;DHT22;724;49.910;12.530;2022-09-09T13:30:25;19.70;1.00
1461;DHT22;724;49.910;12.530;2022-09-09T13:33:04;20.00;1.00
1461;DHT22;724;49.910;12.530;2022-09-09T13:35:32;19.60;1.00
1461;DHT22;724;49.910;12.530;2022-09-09T13:37:59;19.10;1.00
1461;DHT22;724;49.910;12.530;2022-09-09T13:40:33;18.70;1.00
1461;DHT22;724;49.910;12.530;2022-09-09T13:43:01;18.30;1.00
1461;DHT22;724;49.910;12.530;2022-09-09T13:45:29;18.10;1.00
1461;DHT22;724;49.910;12.530;2022-09-09T13:47:55;18.20;1.00
1461;DHT22;724;49.910;12.530;2022-09-09T13:50:24;18.10;1.00
1461;DHT22;724;49.910;12.530;2022-09-09T13:52:53;18.20;1.00
1461;DHT22;724;49.910;12.530;2022-09-09T13:55:20;18.40;1.00
1461;DHT22;724;49.910;12.530;2022-09-09T13:57:51;18.40;1.00
1461;DHT22;724;49.910;12.530;2022-09-09T14:00:21;18.40;1.00
1461;DHT22;724;49.910;12.530;2022-09-09T14:02:48;18.10;1.00
1461;DHT22;724;49.910;12.530;2022-09-09T14:05:15;18.00;1.00
1461;DHT22;724;49.910;12.530;2022-09-09T14:07:42;17.90;1.00
1461;DHT22;724;49.910;12.530;2022-09-09T14:10:09;17.80;1.00
1461;DHT22;724;49.910;12.530;2022-09-09T14:12:36;17.80;1.00
1461;DHT22;724;49.910;12.530;2022-09-09T14:15:04;17.70;1.00
1461;DHT22;724;49.910;12.530;2022-09-09T14:17:33;17.60;1.00
1461;DHT22;724;49.910;12.530;2022-09-09T14:20:02;17.50;6.60
1461;DHT22;724;49.910;12.530;2022-09-09T14:22:29;17.50;23.40
1461;DHT22;724;49.910;12.530;2022-09-09T14:24:55;17.40;52.40
1461;DHT22;724;49.910;12.530;2022-09-09T14:27:23;17.30;67.50
1461;DHT22;724;49.910;12.530;2022-09-09T14:29:51;17.30;97.40
1461;DHT22;724;49.910;12.530;2022-09-09T14:32:18;17.20;99.90
1461;DHT22;724;49.910;12.530;2022-09-09T14:34:46;17.10;99.90
1461;DHT22;724;49.910;12.530;2022-09-09T14:37:15;17.30;99.90
1461;DHT22;724;49.910;12.530;2022-09-09T14:39:41;17.30;99.90
1461;DHT22;724;49.910;12.530;2022-09-09T14:42:10;17.40;99.90
1461;DHT22;724;49.910;12.530;2022-09-09T14:44:37;17.20;99.90
1461;DHT22;724;49.910;12.530;2022-09-09T14:47:04;17.40;99.90
1461;DHT22;724;49.910;12.530;2022-09-09T14:49:30;17.40;99.90
1461;DHT22;724;49.910;12.530;2022-09-09T14:51:59;17.20;99.90
1461;DHT22;724;49.910;12.530;2022-09-09T14:54:25;17.00;99.90
1461;DHT22;724;49.910;12.530;2022-09-09T14:56:53;17.10;99.90
1461;DHT22;724;49.910;12.530;2022-09-09T14:59:20;16.70;1.00
1461;DHT22;724;49.910;12.530;2022-09-09T15:01:47;16.20;1.00
1461;DHT22;724;49.910;12.530;2022-09-09T15:04:14;16.00;1.00
1461;DHT22;724;49.910;12.530;2022-09-09T15:06:42;15.80;1.00
1461;DHT22;724;49.910;12.530;2022-09-09T15:09:14;15.60;1.00
1461;DHT22;724;49.910;12.530;2022-09-09T15:11:40;15.70;1.00
1461;DHT22;724;49.910;12.530;2022-09-09T15:14:08;15.30;1.00
1461;DHT22;724;49.910;12.530;2022-09-09T15:16:35;15.00;1.00
1461;DHT22;724;49.910;12.530;2022-09-09T15:19:03;14.80;1.00
1461;DHT22;724;49.910;12.530;2022-09-09T15:21:31;14.60;1.00
1461;DHT22;724;49.910;12.530;2022-09-09T15:23:59;14.50;1.00
1461;DHT22;724;49.910;12.530;2022-09-09T15:26:27;14.60;28.30
1461;DHT22;724;49.910;12.530;2022-09-09T15:28:55;14.60;31.30
1461;DHT22;724;49.910;12.530;2022-09-09T15:31:26;14.70;1.00
1461;DHT22;724;49.910;12.530;2022-09-09T15:33:55;14.80;1.00
1461;DHT22;724;49.910;12.530;2022-09-09T15:36:27;14.80;1.00
1461;DHT22;724;49.910;12.530;2022-09-09T15:38:55;14.50;1.00
1461;DHT22;724;49.910;12.530;2022-09-09T15:41:22;14.40;23.50
1461;DHT22;724;49.910;12.530;2022-09-09T15:43:52;14.60;1.00
1461;DHT22;724;49.910;12.530;2022-09-09T15:46:25;14.70;1.00
1461;DHT22;724;49.910;12.530;2022-09-09T15:48:55;14.90;1.00
1461;DHT22;724;49.910;12.530;2022-09-09T15:51:23;14.90;1.00
1461;DHT22;724;49.910;12.530;2022-09-09T15:53:54;14.80;1.00
1461;DHT22;724;49.910;12.530;2022-09-09T15:56:22;14.70;1.00
1461;DHT22;724;49.910;12.530;2022-09-09T15:58:50;14.60;1.00
1461;DHT22;724;49.910;12.530;2022-09-09T16:01:23;14.80;1.00
1461;DHT22;724;49.910;12.530;2022-09-09T16:03:50;14.70;1.00
1461;DHT22;724;49.910;12.530;2022-09-09T16:06:18;14.30;99.90
1461;DHT22;724;49.910;12.530;2022-09-09T16:08:48;14.30;99.90
1461;DHT22;724;49.910;12.530;2022-09-09T16:11:17;14.40;99.90
1461;DHT22;724;49.910;12.530;2022-09-09T16:13:46;14.10;1.00
1461;DHT22;724;49.910;12.530;2022-09-09T16:16:16;13.90;99.90
1461;DHT22;724;49.910;12.530;2022-09-09T16:18:44;14.20;78.80
1461;DHT22;724;49.910;12.530;2022-09-09T16:21:14;14.30;35.20
1461;DHT22;724;49.910;12.530;2022-09-09T16:23:41;14.10;5.40
1461;DHT22;724;49.910;12.530;2022-09-09T16:26:11;13.70;99.90
1461;DHT22;724;49.910;12.530;2022-09-09T16:28:38;13.90;1.00
1461;DHT22;724;49.910;12.530;2022-09-09T16:31:07;14.20;1.00
1461;DHT22;724;49.910;12.530;2022-09-09T16:33:37;14.00;1.00
1461;DHT22;724;49.910;12.530;2022-09-09T16:36:08;14.10;1.00
1461;DHT22;724;49.910;12.530;2022-09-09T16:38:36;14.20;1.00
1461;DHT22;724;49.910;12.530;2022-09-09T16:41:04;14.20;99.90
1461;DHT22;724;49.910;12.530;2022-09-09T16:43:31;14.00;99.90
1461;DHT22;724;49.910;12.530;2022-09-09T16:45:58;13.50;99.90